createdAt,value
2023-03-04T00:02:13.653Z,3.50
2023-03-04T00:04:40.455Z,3.80
2023-03-04T00:07:07.273Z,3.23
2023-03-04T00:09:34.002Z,3.40
2023-03-04T00:12:00.736Z,4.00
2023-03-04T00:14:30.236Z,4.13
2023-03-04T00:16:57.140Z,3.60
2023-03-04T00:19:24.016Z,3.20
2023-03-04T00:21:50.726Z,3.90
2023-03-04T00:24:17.572Z,3.53
2023-03-04T00:26:44.397Z,3.33
2023-03-04T00:29:11.065Z,3.13
2023-03-04T00:31:37.973Z,3.07
2023-03-04T00:34:04.808Z,2.93
2023-03-04T00:36:31.466Z,2.60
2023-03-04T00:38:58.139Z,3.00
2023-03-04T00:41:24.978Z,3.37
2023-03-04T00:43:51.957Z,4.60
2023-03-04T00:46:18.684Z,2.43
2023-03-04T00:48:45.404Z,2.33
2023-03-04T00:51:12.096Z,2.53
2023-03-04T00:53:38.925Z,2.70
2023-03-04T00:56:06.082Z,3.37
2023-03-04T00:58:32.817Z,2.50
2023-03-04T01:00:59.494Z,2.93
2023-03-04T01:03:26.958Z,2.53
2023-03-04T01:05:53.672Z,2.70
2023-03-04T01:08:20.399Z,3.80
2023-03-04T01:10:48.532Z,2.63
2023-03-04T01:13:15.196Z,2.63
2023-03-04T01:15:41.898Z,2.57
2023-03-04T01:18:08.682Z,2.97
2023-03-04T01:20:35.524Z,2.70
2023-03-04T01:23:02.210Z,2.83
2023-03-04T01:25:28.880Z,2.97
2023-03-04T01:27:55.564Z,2.60
2023-03-04T01:30:22.257Z,2.90
2023-03-04T01:32:48.941Z,3.00
2023-03-04T01:35:15.660Z,2.40
2023-03-04T01:37:42.348Z,2.67
2023-03-04T01:40:10.392Z,2.63
2023-03-04T01:42:37.127Z,2.70
2023-03-04T01:45:06.191Z,3.13
2023-03-04T01:47:36.179Z,3.50
2023-03-04T01:50:11.186Z,2.83
2023-03-04T01:52:40.031Z,2.60
2023-03-04T01:55:20.734Z,2.47
2023-03-04T01:57:49.064Z,2.63
2023-03-04T02:00:24.837Z,3.30
2023-03-04T02:02:56.234Z,2.93
2023-03-04T02:05:23.537Z,2.70
2023-03-04T02:07:52.133Z,2.60
2023-03-04T02:10:19.260Z,3.90
2023-03-04T02:12:46.242Z,2.60
2023-03-04T02:15:13.439Z,3.87
2023-03-04T02:17:40.514Z,2.70
2023-03-04T02:20:30.263Z,2.67
2023-03-04T02:23:12.078Z,2.93
2023-03-04T02:25:52.740Z,2.60
2023-03-04T02:28:19.461Z,2.37
2023-03-04T02:30:46.373Z,2.77
2023-03-04T02:33:19.590Z,2.77
2023-03-04T02:35:46.858Z,3.17
2023-03-04T02:38:14.040Z,2.60
2023-03-04T02:40:45.013Z,2.90
2023-03-04T02:43:12.241Z,3.13
2023-03-04T02:45:49.672Z,3.60
2023-03-04T02:48:18.943Z,4.07
2023-03-04T02:50:49.120Z,2.93
2023-03-04T02:53:16.576Z,4.37
2023-03-04T02:55:43.768Z,2.63
2023-03-04T02:58:11.134Z,2.50
2023-03-04T03:00:38.194Z,2.10
2023-03-04T03:03:05.483Z,3.40
2023-03-04T03:05:34.387Z,3.03
2023-03-04T03:08:01.531Z,2.80
2023-03-04T03:10:28.576Z,2.63
2023-03-04T03:12:55.441Z,2.50
2023-03-04T03:15:22.592Z,2.93
2023-03-04T03:17:49.316Z,2.80
2023-03-04T03:20:17.180Z,2.90
2023-03-04T03:22:44.476Z,2.43
2023-03-04T03:25:13.112Z,2.40
2023-03-04T03:27:39.833Z,3.13
2023-03-04T03:30:07.850Z,2.43
2023-03-04T03:32:34.608Z,2.23
2023-03-04T03:35:01.348Z,2.50
2023-03-04T03:37:28.001Z,1.90
2023-03-04T03:39:54.653Z,2.57
2023-03-04T03:42:21.442Z,2.30
2023-03-04T03:44:48.137Z,3.33
2023-03-04T03:47:14.764Z,1.97
2023-03-04T03:49:41.454Z,2.40
2023-03-04T03:52:09.122Z,2.37
2023-03-04T03:54:36.496Z,2.13
2023-03-04T03:57:03.276Z,2.27
2023-03-04T03:59:29.992Z,2.53
2023-03-04T04:01:56.811Z,2.00
2023-03-04T04:04:23.545Z,2.63
2023-03-04T04:06:50.258Z,1.97
2023-03-04T04:09:16.925Z,2.63
2023-03-04T04:11:44.651Z,1.70
2023-03-04T04:14:14.600Z,2.53
2023-03-04T04:16:41.468Z,2.07
2023-03-04T04:19:09.379Z,2.00
2023-03-04T04:21:36.009Z,2.17
2023-03-04T04:24:02.692Z,1.80
2023-03-04T04:26:29.323Z,1.87
2023-03-04T04:28:56.028Z,1.63
2023-03-04T04:31:22.706Z,2.40
2023-03-04T04:33:49.391Z,1.67
2023-03-04T04:36:16.684Z,1.70
2023-03-04T04:38:43.882Z,2.07
2023-03-04T04:41:23.169Z,2.90
2023-03-04T04:43:49.828Z,2.30
2023-03-04T04:46:17.190Z,2.10
2023-03-04T04:48:44.129Z,2.40
2023-03-04T04:51:11.343Z,1.90
2023-03-04T04:53:38.525Z,2.20
2023-03-04T04:56:17.120Z,2.43
2023-03-04T04:58:44.586Z,2.20
2023-03-04T05:01:11.683Z,1.90
2023-03-04T05:03:39.013Z,2.23
2023-03-04T05:06:08.356Z,1.90
2023-03-04T05:08:35.803Z,1.87
2023-03-04T05:11:03.463Z,2.20
2023-03-04T05:13:30.262Z,2.30
2023-03-04T05:15:57.867Z,2.10
2023-03-04T05:18:25.974Z,2.30
2023-03-04T05:20:55.049Z,1.93
2023-03-04T05:23:22.385Z,1.90
2023-03-04T05:25:49.453Z,1.83
2023-03-04T05:28:17.264Z,2.50
2023-03-04T05:30:45.546Z,2.20
2023-03-04T05:33:14.007Z,3.67
2023-03-04T05:35:41.991Z,1.70
2023-03-04T05:38:11.143Z,1.97
2023-03-04T05:40:38.925Z,2.13
2023-03-04T05:43:05.754Z,1.90
2023-03-04T05:45:33.543Z,1.90
2023-03-04T05:48:00.769Z,3.27
2023-03-04T05:50:27.504Z,2.20
2023-03-04T05:52:54.181Z,2.20
2023-03-04T05:55:21.028Z,1.87
2023-03-04T05:57:47.822Z,1.70
2023-03-04T06:00:16.618Z,2.47
2023-03-04T06:02:44.953Z,2.80
2023-03-04T06:05:14.371Z,1.50
2023-03-04T06:07:43.215Z,2.30
2023-03-04T06:10:12.951Z,2.17
2023-03-04T06:12:39.965Z,1.60
2023-03-04T06:15:07.311Z,1.80
2023-03-04T06:17:34.034Z,2.00
2023-03-04T06:20:00.682Z,1.70
2023-03-04T06:22:27.480Z,1.87
2023-03-04T06:24:54.154Z,1.80
2023-03-04T06:27:20.790Z,1.70
2023-03-04T06:29:47.452Z,1.83
2023-03-04T06:32:14.187Z,1.97
2023-03-04T06:34:40.929Z,1.70
2023-03-04T06:37:07.642Z,2.30
2023-03-04T06:39:34.330Z,1.50
2023-03-04T06:42:01.112Z,1.80
2023-03-04T06:44:28.012Z,1.40
2023-03-04T06:46:54.755Z,1.63
2023-03-04T06:49:21.434Z,1.67
2023-03-04T06:51:48.104Z,1.70
2023-03-04T06:54:14.791Z,1.67
2023-03-04T06:56:41.519Z,1.57
2023-03-04T06:59:08.215Z,1.70
2023-03-04T07:01:35.183Z,1.50
2023-03-04T07:04:02.625Z,1.73
2023-03-04T07:06:30.185Z,1.93
2023-03-04T07:08:57.619Z,1.67
2023-03-04T07:11:24.445Z,1.60
2023-03-04T07:13:51.594Z,2.10
2023-03-04T07:16:20.919Z,1.80
2023-03-04T07:18:47.689Z,1.80
2023-03-04T07:21:15.746Z,1.60
2023-03-04T07:23:42.530Z,1.90
2023-03-04T07:26:09.763Z,1.50
2023-03-04T07:28:36.564Z,2.00
2023-03-04T07:31:25.430Z,1.60
2023-03-04T07:33:52.629Z,1.67
2023-03-04T07:36:19.992Z,1.87
2023-03-04T07:38:49.550Z,1.60
2023-03-04T07:41:17.484Z,1.70
2023-03-04T07:43:45.014Z,1.87
2023-03-04T07:46:12.046Z,3.40
2023-03-04T07:48:38.774Z,1.50
2023-03-04T07:51:11.143Z,1.37
2023-03-04T07:53:39.752Z,1.60
2023-03-04T07:56:08.389Z,1.50
2023-03-04T07:58:35.107Z,2.03
2023-03-04T08:01:01.978Z,1.33
2023-03-04T08:03:29.728Z,1.97
2023-03-04T08:05:56.472Z,1.77
2023-03-04T08:08:23.208Z,1.33
2023-03-04T08:10:49.876Z,1.07
2023-03-04T08:13:16.553Z,1.87
2023-03-04T08:15:43.596Z,1.40
2023-03-04T08:18:10.417Z,1.70
2023-03-04T08:20:37.151Z,1.40
2023-03-04T08:23:03.942Z,1.30
2023-03-04T08:25:30.815Z,1.43
2023-03-04T08:27:57.549Z,1.23
2023-03-04T08:30:24.360Z,0.90
2023-03-04T08:32:51.078Z,1.20
2023-03-04T08:35:17.796Z,1.23
2023-03-04T08:37:46.025Z,1.30
2023-03-04T08:40:13.639Z,1.10
2023-03-04T08:42:41.364Z,1.20
2023-03-04T08:45:09.383Z,1.10
2023-03-04T08:47:36.187Z,1.20
2023-03-04T08:50:03.328Z,1.20
2023-03-04T08:52:30.748Z,1.10
2023-03-04T08:54:57.540Z,0.90
2023-03-04T08:57:24.550Z,1.40
2023-03-04T08:59:51.312Z,1.00
2023-03-04T09:02:18.050Z,1.10
2023-03-04T09:04:44.732Z,1.97
2023-03-04T09:07:11.512Z,1.30
2023-03-04T09:09:38.250Z,1.20
2023-03-04T09:12:05.115Z,1.03
2023-03-04T09:14:33.354Z,1.10
2023-03-04T09:17:00.450Z,1.13
2023-03-04T09:19:27.955Z,1.00
2023-03-04T09:21:55.892Z,1.10
2023-03-04T09:24:22.752Z,1.10
2023-03-04T09:26:53.543Z,1.03
2023-03-04T09:29:20.304Z,1.33
2023-03-04T09:31:47.257Z,1.20
2023-03-04T09:34:14.073Z,1.10
2023-03-04T09:36:40.808Z,1.00
2023-03-04T09:39:07.641Z,1.33
2023-03-04T09:41:49.660Z,0.80
2023-03-04T09:44:19.369Z,0.90
2023-03-04T09:46:48.908Z,1.67
2023-03-04T09:49:16.588Z,1.20
2023-03-04T09:51:58.249Z,1.03
2023-03-04T09:54:55.438Z,0.80
2023-03-04T09:57:24.892Z,0.90
2023-03-04T10:00:00.440Z,1.13
2023-03-04T10:03:03.954Z,1.30
2023-03-04T10:05:34.325Z,1.87
2023-03-04T10:08:53.003Z,1.10
2023-03-04T10:11:31.584Z,1.20
2023-03-04T10:14:16.632Z,1.20
2023-03-04T10:16:48.996Z,1.63
2023-03-04T10:19:24.781Z,1.20
2023-03-04T10:21:52.687Z,1.13
2023-03-04T10:24:22.695Z,1.40
2023-03-04T10:26:53.779Z,1.30
2023-03-04T10:29:24.323Z,1.50
2023-03-04T10:31:51.871Z,2.70
2023-03-04T10:34:19.085Z,1.47
2023-03-04T10:37:01.487Z,1.47
2023-03-04T10:39:35.474Z,1.20
2023-03-04T10:42:05.520Z,1.50
2023-03-04T10:44:34.620Z,1.37
2023-03-04T10:47:01.687Z,1.37
2023-03-04T10:49:30.791Z,1.10
2023-03-04T10:52:02.893Z,1.03
2023-03-04T10:54:37.605Z,1.33
2023-03-04T10:57:04.362Z,1.20
2023-03-04T10:59:57.019Z,1.00
2023-03-04T11:02:27.962Z,1.33
2023-03-04T11:05:15.542Z,1.20
2023-03-04T11:07:55.904Z,1.20
2023-03-04T11:10:37.174Z,1.33
2023-03-04T11:13:14.970Z,1.60
2023-03-04T11:16:24.707Z,1.23
2023-03-04T11:18:54.452Z,1.63
2023-03-04T11:21:28.781Z,1.77
2023-03-04T11:24:30.139Z,1.50
2023-03-04T11:27:18.723Z,1.37
2023-03-04T11:30:04.825Z,1.40
2023-03-04T11:32:40.463Z,1.63
2023-03-04T11:35:20.840Z,1.60
2023-03-04T11:38:03.913Z,1.60
2023-03-04T11:40:40.864Z,1.40
2023-03-04T11:43:19.146Z,1.50
2023-03-04T11:45:59.822Z,1.93
2023-03-04T11:48:51.445Z,1.57
2023-03-04T11:51:33.080Z,1.70
2023-03-04T11:54:28.960Z,1.93
2023-03-04T11:57:30.326Z,2.00
2023-03-04T12:00:18.618Z,2.20
2023-03-04T12:03:13.163Z,1.87
2023-03-04T12:06:00.674Z,2.50
2023-03-04T12:08:51.380Z,2.43
2023-03-04T12:11:27.077Z,1.80
2023-03-04T12:14:27.638Z,2.50
2023-03-04T12:17:13.045Z,2.00
2023-03-04T12:19:58.526Z,2.20
2023-03-04T12:22:43.702Z,1.90
2023-03-04T12:25:35.114Z,2.60
2023-03-04T12:28:23.876Z,2.27
2023-03-04T12:31:02.600Z,2.63
2023-03-04T12:33:29.262Z,2.23
2023-03-04T12:36:29.675Z,2.00
2023-03-04T12:39:00.733Z,2.70
2023-03-04T12:41:57.894Z,1.97
2023-03-04T12:44:24.828Z,2.60
2023-03-04T12:47:11.934Z,2.20
2023-03-04T12:50:04.364Z,2.60
2023-03-04T12:52:49.921Z,1.60
2023-03-04T12:55:22.308Z,2.20
2023-03-04T12:57:50.279Z,2.10
2023-03-04T13:00:45.591Z,2.10
2023-03-04T13:03:21.928Z,2.00
2023-03-04T13:06:14.873Z,2.33
2023-03-04T13:09:18.442Z,2.07
2023-03-04T13:11:52.794Z,2.73
2023-03-04T13:14:25.879Z,2.47
2023-03-04T13:17:25.638Z,2.07
2023-03-04T13:20:19.672Z,2.60
2023-03-04T13:22:54.188Z,2.20
2023-03-04T13:25:34.065Z,1.63
2023-03-04T13:28:02.633Z,1.53
2023-03-04T13:30:32.186Z,2.00
2023-03-04T13:33:08.476Z,2.43
2023-03-04T13:36:04.191Z,2.23
2023-03-04T13:38:31.142Z,2.10
2023-03-04T13:41:20.081Z,2.70
2023-03-04T13:43:52.107Z,2.60
2023-03-04T13:46:18.922Z,2.10
2023-03-04T13:48:51.680Z,2.50
2023-03-04T13:51:41.298Z,1.97
2023-03-04T13:54:16.219Z,1.53
2023-03-04T13:57:09.804Z,2.87
2023-03-04T13:59:46.529Z,1.73
2023-03-04T14:02:22.680Z,1.83
2023-03-04T14:05:00.913Z,1.83
2023-03-04T14:07:29.587Z,2.00
2023-03-04T14:09:57.744Z,1.93
2023-03-04T14:12:26.151Z,1.33
2023-03-04T14:14:56.197Z,1.77
2023-03-04T14:17:26.841Z,1.50
2023-03-04T14:19:54.054Z,1.20
2023-03-04T14:22:39.457Z,1.17
2023-03-04T14:25:13.555Z,1.50
2023-03-04T14:27:40.649Z,1.90
2023-03-04T14:30:39.070Z,1.73
2023-03-04T14:33:13.942Z,1.30
2023-03-04T14:35:47.395Z,1.87
2023-03-04T14:38:24.870Z,1.57
2023-03-04T14:40:56.573Z,1.53
2023-03-04T14:43:24.047Z,1.83
2023-03-04T14:45:54.585Z,1.53
2023-03-04T14:48:25.416Z,1.87
2023-03-04T14:50:53.965Z,2.63
2023-03-04T14:53:23.147Z,1.40
2023-03-04T14:55:59.799Z,1.53
2023-03-04T14:58:34.920Z,1.50
2023-03-04T15:01:05.902Z,2.27
2023-03-04T15:03:34.172Z,1.47
2023-03-04T15:06:21.996Z,1.63
2023-03-04T15:09:07.169Z,1.70
2023-03-04T15:11:47.147Z,1.70
2023-03-04T15:14:42.921Z,2.33
2023-03-04T15:17:51.373Z,2.70
2023-03-04T15:20:20.700Z,2.03
2023-03-04T15:22:53.243Z,2.40
2023-03-04T15:25:21.024Z,1.60
2023-03-04T15:27:50.000Z,2.40
2023-03-04T15:30:24.119Z,2.50
2023-03-04T15:32:50.905Z,2.43
2023-03-04T15:35:20.056Z,2.70
2023-03-04T15:37:49.475Z,2.77
2023-03-04T15:40:29.585Z,2.23
2023-03-04T15:42:58.271Z,3.10
2023-03-04T15:45:31.257Z,2.60
2023-03-04T15:47:58.385Z,2.50
2023-03-04T15:50:28.672Z,3.43
2023-03-04T15:53:02.202Z,2.50
2023-03-04T15:55:30.772Z,2.80
2023-03-04T15:58:00.219Z,2.97
2023-03-04T16:00:28.062Z,2.47
2023-03-04T16:02:54.778Z,7.40
2023-03-04T16:05:21.588Z,4.13
2023-03-04T16:07:50.270Z,3.03
2023-03-04T16:10:22.160Z,2.43
2023-03-04T16:12:49.757Z,2.97
2023-03-04T16:15:18.985Z,2.50
2023-03-04T16:17:46.738Z,2.97
2023-03-04T16:20:15.905Z,3.40
2023-03-04T16:22:43.898Z,3.03
2023-03-04T16:25:12.806Z,3.53
2023-03-04T16:27:40.345Z,2.80
2023-03-04T16:30:22.421Z,2.20
2023-03-04T16:32:49.237Z,2.20
2023-03-04T16:35:17.424Z,2.57
2023-03-04T16:37:44.940Z,2.10
2023-03-04T16:40:14.984Z,2.50
2023-03-04T16:42:41.985Z,3.03
2023-03-04T16:45:19.869Z,2.90
2023-03-04T16:47:46.917Z,4.07
2023-03-04T16:50:27.027Z,3.27
2023-03-04T16:52:55.111Z,3.20
2023-03-04T16:55:25.948Z,3.00
2023-03-04T16:57:53.887Z,3.37
2023-03-04T17:00:22.606Z,2.87
2023-03-04T17:02:56.352Z,2.43
2023-03-04T17:05:25.555Z,2.97
2023-03-04T17:07:52.241Z,2.73
2023-03-04T17:10:20.309Z,3.07
2023-03-04T17:12:47.117Z,3.00
2023-03-04T17:15:15.222Z,2.97
2023-03-04T17:17:43.023Z,3.83
2023-03-04T17:20:13.119Z,2.43
2023-03-04T17:22:40.250Z,3.20
2023-03-04T17:25:07.596Z,2.40
2023-03-04T17:27:35.060Z,2.23
2023-03-04T17:30:02.255Z,2.20
2023-03-04T17:32:31.507Z,2.13
2023-03-04T17:34:59.189Z,2.10
2023-03-04T17:37:26.748Z,2.50
2023-03-04T17:39:53.744Z,2.00
2023-03-04T17:42:20.894Z,2.00
2023-03-04T17:44:47.724Z,2.30
2023-03-04T17:47:15.246Z,1.87
2023-03-04T17:49:42.166Z,2.60
2023-03-04T17:52:08.973Z,1.60
2023-03-04T17:54:36.653Z,1.93
2023-03-04T17:57:03.982Z,2.13
2023-03-04T17:59:30.757Z,2.57
2023-03-04T18:01:57.486Z,2.10
2023-03-04T18:04:24.322Z,2.23
2023-03-04T18:06:51.081Z,2.50
2023-03-04T18:09:17.834Z,2.60
2023-03-04T18:11:44.749Z,2.80
2023-03-04T18:14:12.802Z,2.67
2023-03-04T18:16:40.498Z,2.03
2023-03-04T18:19:09.357Z,2.20
2023-03-04T18:21:36.484Z,2.17
2023-03-04T18:24:03.538Z,3.88
2023-03-04T18:26:30.689Z,2.70
2023-03-04T18:28:57.713Z,3.03
2023-03-04T18:31:29.465Z,2.53
2023-03-04T18:33:59.037Z,2.20
2023-03-04T18:36:25.795Z,2.67
2023-03-04T18:38:52.546Z,3.37
2023-03-04T18:41:19.404Z,3.07
2023-03-04T18:43:46.074Z,2.03
2023-03-04T18:46:21.664Z,2.47
2023-03-04T18:48:56.138Z,2.43
2023-03-04T18:51:22.974Z,2.87
2023-03-04T18:53:49.880Z,2.80
2023-03-04T18:56:21.708Z,3.43
2023-03-04T18:58:50.374Z,2.50
2023-03-04T19:01:20.423Z,2.07
2023-03-04T19:03:47.802Z,2.20
2023-03-04T19:06:14.834Z,2.50
2023-03-04T19:08:41.621Z,2.17
2023-03-04T19:11:08.512Z,2.30
2023-03-04T19:13:35.472Z,2.10
2023-03-04T19:16:02.176Z,2.30
2023-03-04T19:18:29.324Z,3.00
2023-03-04T19:20:59.014Z,2.70
2023-03-04T19:23:25.791Z,2.80
2023-03-04T19:25:52.579Z,2.30
2023-03-04T19:28:19.361Z,3.83
2023-03-04T19:30:46.298Z,2.67
2023-03-04T19:33:13.058Z,3.03
2023-03-04T19:35:44.468Z,2.43
2023-03-04T19:38:11.806Z,2.60
2023-03-04T19:40:40.402Z,3.50
2023-03-04T19:43:08.150Z,3.17
2023-03-04T19:45:35.002Z,2.80
2023-03-04T19:48:03.107Z,2.63
2023-03-04T19:50:31.175Z,3.03
2023-03-04T19:52:57.858Z,2.30
2023-03-04T19:55:24.669Z,2.07
2023-03-04T19:57:51.384Z,2.40
2023-03-04T20:00:18.568Z,2.37
2023-03-04T20:02:47.781Z,2.37
2023-03-04T20:05:14.498Z,2.03
2023-03-04T20:07:41.279Z,3.10
2023-03-04T20:10:08.805Z,2.40
2023-03-04T20:12:36.288Z,2.20
2023-03-04T20:15:06.123Z,2.00
2023-03-04T20:17:32.880Z,2.23
2023-03-04T20:19:59.559Z,1.90
2023-03-04T20:22:26.408Z,2.93
2023-03-04T20:24:54.847Z,2.20
2023-03-04T20:27:21.744Z,2.93
2023-03-04T20:29:49.164Z,2.17
2023-03-04T20:32:15.974Z,3.10
2023-03-04T20:34:42.696Z,3.80
2023-03-04T20:37:09.505Z,2.70
2023-03-04T20:39:36.202Z,2.13
2023-03-04T20:42:03.770Z,1.83
2023-03-04T20:44:30.502Z,2.07
2023-03-04T20:46:57.222Z,2.50
2023-03-04T20:49:27.143Z,2.40
2023-03-04T20:52:03.258Z,2.13
2023-03-04T20:54:30.756Z,2.50
2023-03-04T20:56:57.465Z,2.20
2023-03-04T20:59:24.523Z,2.10
2023-03-04T21:01:52.106Z,3.27
2023-03-04T21:04:19.608Z,5.33
2023-03-04T21:06:47.497Z,5.80
2023-03-04T21:09:16.441Z,4.43
2023-03-04T21:11:43.902Z,2.90
2023-03-04T21:14:24.809Z,2.97
2023-03-04T21:16:54.702Z,2.67
2023-03-04T21:19:27.551Z,2.90
2023-03-04T21:21:55.609Z,3.00
2023-03-04T21:24:24.928Z,3.70
2023-03-04T21:26:51.824Z,3.80
2023-03-04T21:29:20.635Z,3.87
2023-03-04T21:32:09.734Z,3.33
2023-03-04T21:34:48.233Z,5.13
2023-03-04T21:37:14.946Z,8.03
2023-03-04T21:39:41.596Z,6.40
2023-03-04T21:42:08.284Z,4.87
2023-03-04T21:44:48.461Z,6.03
2023-03-04T21:47:16.151Z,4.73
2023-03-04T21:49:42.825Z,4.80
2023-03-04T21:52:09.537Z,3.63
2023-03-04T21:54:36.257Z,4.20
2023-03-04T21:57:03.174Z,3.90
2023-03-04T21:59:29.910Z,4.47
2023-03-04T22:01:56.799Z,4.17
2023-03-04T22:04:23.492Z,3.67
2023-03-04T22:06:50.179Z,3.97
2023-03-04T22:09:16.891Z,4.33
2023-03-04T22:11:43.650Z,4.23
2023-03-04T22:14:11.096Z,4.23
2023-03-04T22:16:48.890Z,4.27
2023-03-04T22:19:19.640Z,5.40
2023-03-04T22:21:46.305Z,4.27
2023-03-04T22:24:13.038Z,4.00
2023-03-04T22:26:39.697Z,3.03
2023-03-04T22:29:06.499Z,3.13
2023-03-04T22:31:35.449Z,3.00
2023-03-04T22:34:04.923Z,3.33
2023-03-04T22:36:34.921Z,3.53
2023-03-04T22:39:03.376Z,3.33
2023-03-04T22:41:30.273Z,3.17
2023-03-04T22:43:57.018Z,3.67
2023-03-04T22:46:27.385Z,3.27
2023-03-04T22:48:58.586Z,3.53
2023-03-04T22:51:25.710Z,2.87
2023-03-04T22:53:53.064Z,3.47
2023-03-04T22:56:20.265Z,3.43
2023-03-04T22:58:47.783Z,3.43
2023-03-04T23:01:15.978Z,3.30
2023-03-04T23:03:45.142Z,2.80
2023-03-04T23:06:15.222Z,3.20
2023-03-04T23:08:44.016Z,3.50
2023-03-04T23:11:14.152Z,3.10
2023-03-04T23:13:41.262Z,3.47
2023-03-04T23:16:10.897Z,3.03
2023-03-04T23:18:39.737Z,2.80
2023-03-04T23:21:12.068Z,3.20
2023-03-04T23:23:41.422Z,3.40
2023-03-04T23:26:16.912Z,3.17
2023-03-04T23:28:43.697Z,3.60
2023-03-04T23:31:10.739Z,3.10
2023-03-04T23:33:37.436Z,2.93
2023-03-04T23:36:04.359Z,3.10
2023-03-04T23:38:31.016Z,3.27
2023-03-04T23:40:57.914Z,3.03
2023-03-04T23:43:27.123Z,3.13
2023-03-04T23:45:53.810Z,2.93
2023-03-04T23:48:20.480Z,2.90
2023-03-04T23:50:52.842Z,2.40
2023-03-04T23:53:20.101Z,2.30
2023-03-04T23:55:47.031Z,2.20
2023-03-04T23:58:13.911Z,2.30
